createdAt,value
2023-05-06T00:00:19.953Z,96797.53
2023-05-06T00:02:47.129Z,96800.56
2023-05-06T00:05:14.242Z,96808.09
2023-05-06T00:07:41.136Z,96798.09
2023-05-06T00:10:21.325Z,96799.91
2023-05-06T00:12:47.846Z,96813.38
2023-05-06T00:15:14.323Z,96808.09
2023-05-06T00:17:40.881Z,96815.41
2023-05-06T00:20:09.555Z,96811.75
2023-05-06T00:22:36.176Z,96811.34
2023-05-06T00:25:04.844Z,96813.59
2023-05-06T00:27:31.298Z,96808.69
2023-05-06T00:29:58.345Z,96810.53
2023-05-06T00:32:24.850Z,96797.53
2023-05-06T00:34:51.440Z,96798.53
2023-05-06T00:37:17.877Z,96808.09
2023-05-06T00:39:45.433Z,96802.56
2023-05-06T00:42:11.893Z,96801.72
2023-05-06T00:44:38.366Z,96811.28
2023-05-06T00:47:05.019Z,96811.13
2023-05-06T00:49:32.001Z,96813.78
2023-05-06T00:51:59.640Z,96814.41
2023-05-06T00:54:26.911Z,96806.66
2023-05-06T00:56:54.348Z,96818.66
2023-05-06T00:59:22.605Z,96809.28
2023-05-06T01:01:55.086Z,96817.44
2023-05-06T01:04:23.930Z,96812.13
2023-05-06T01:07:06.270Z,96818.63
2023-05-06T01:09:38.703Z,96822.44
2023-05-06T01:12:17.144Z,96790.00
2023-05-06T01:15:08.828Z,96819.22
2023-05-06T01:17:43.547Z,96823.50
2023-05-06T01:20:12.000Z,96825.88
2023-05-06T01:22:42.132Z,96816.25
2023-05-06T01:25:21.297Z,96827.81
2023-05-06T01:27:53.777Z,96832.56
2023-05-06T01:30:30.317Z,96822.50
2023-05-06T01:33:08.919Z,96809.84
2023-05-06T01:35:58.982Z,96826.19
2023-05-06T01:38:37.958Z,96822.72
2023-05-06T01:41:05.906Z,96822.25
2023-05-06T01:43:37.718Z,96827.59
2023-05-06T01:46:06.189Z,96820.91
2023-05-06T01:48:36.297Z,96799.19
2023-05-06T01:51:03.110Z,96819.28
2023-05-06T01:53:29.591Z,96816.25
2023-05-06T01:55:56.062Z,96809.97
2023-05-06T01:58:22.517Z,96812.81
2023-05-06T02:00:48.968Z,96816.44
2023-05-06T02:03:15.585Z,96806.69
2023-05-06T02:05:42.148Z,96816.88
2023-05-06T02:08:08.637Z,96802.66
2023-05-06T02:10:35.080Z,96810.78
2023-05-06T02:13:01.675Z,96808.94
2023-05-06T02:15:28.242Z,96802.22
2023-05-06T02:18:01.603Z,96794.13
2023-05-06T02:20:28.116Z,96813.88
2023-05-06T02:23:00.529Z,96806.94
2023-05-06T02:25:27.580Z,96801.25
2023-05-06T02:27:55.089Z,96812.09
2023-05-06T02:30:21.561Z,96799.63
2023-05-06T02:32:48.152Z,96805.78
2023-05-06T02:35:14.628Z,96803.50
2023-05-06T02:37:41.106Z,96798.16
2023-05-06T02:40:08.975Z,96807.75
2023-05-06T02:42:35.940Z,96790.50
2023-05-06T02:45:02.645Z,96801.06
2023-05-06T02:47:29.478Z,96789.84
2023-05-06T02:50:05.976Z,96793.94
2023-05-06T02:52:33.400Z,96797.78
2023-05-06T02:55:00.463Z,96785.97
2023-05-06T02:57:27.041Z,96767.28
2023-05-06T02:59:54.621Z,96778.28
2023-05-06T03:02:21.190Z,96777.25
2023-05-06T03:04:48.789Z,96777.28
2023-05-06T03:07:15.278Z,96774.41
2023-05-06T03:09:41.774Z,96777.06
2023-05-06T03:12:08.278Z,96788.06
2023-05-06T03:14:35.742Z,96790.22
2023-05-06T03:17:02.188Z,96795.31
2023-05-06T03:19:28.650Z,96800.56
2023-05-06T03:21:55.151Z,96807.72
2023-05-06T03:24:21.763Z,96811.19
2023-05-06T03:26:48.279Z,96806.91
2023-05-06T03:29:14.742Z,96795.56
2023-05-06T03:31:41.920Z,96801.63
2023-05-06T03:34:10.837Z,96801.63
2023-05-06T03:36:37.269Z,96800.81
2023-05-06T03:39:03.779Z,96811.38
2023-05-06T03:41:34.426Z,96805.44
2023-05-06T03:44:01.190Z,96806.28
2023-05-06T03:46:34.774Z,96808.31
2023-05-06T03:49:02.803Z,96788.38
2023-05-06T03:51:29.607Z,96801.41
2023-05-06T03:53:56.538Z,96803.41
2023-05-06T03:56:24.162Z,96802.19
2023-05-06T03:58:50.698Z,96813.78
2023-05-06T04:01:18.475Z,96796.91
2023-05-06T04:03:45.067Z,96806.84
2023-05-06T04:06:11.660Z,96807.88
2023-05-06T04:08:38.106Z,96808.44
2023-05-06T04:11:06.156Z,96820.91
2023-05-06T04:13:39.648Z,96816.63
2023-05-06T04:16:06.474Z,96809.28
2023-05-06T04:18:34.291Z,96813.59
2023-05-06T04:21:00.994Z,96811.38
2023-05-06T04:23:27.666Z,96814.03
2023-05-06T04:25:54.186Z,96817.66
2023-05-06T04:28:20.784Z,96816.50
2023-05-06T04:30:48.263Z,96807.88
2023-05-06T04:33:16.840Z,96816.50
2023-05-06T04:35:53.444Z,96824.75
2023-05-06T04:38:21.824Z,96825.72
2023-05-06T04:40:53.637Z,96832.81
2023-05-06T04:43:20.716Z,96827.53
2023-05-06T04:45:54.331Z,96827.81
2023-05-06T04:48:22.380Z,96846.97
2023-05-06T04:50:55.982Z,96835.56
2023-05-06T04:53:22.493Z,96838.41
2023-05-06T04:55:48.962Z,96848.19
2023-05-06T04:58:15.658Z,96830.22
2023-05-06T05:00:42.460Z,96845.31
2023-05-06T05:03:09.036Z,96843.50
2023-05-06T05:05:35.637Z,96835.38
2023-05-06T05:08:02.162Z,96834.97
2023-05-06T05:10:36.672Z,96841.72
2023-05-06T05:13:03.189Z,96847.66
2023-05-06T05:15:29.695Z,96840.31
2023-05-06T05:17:58.746Z,96850.91
2023-05-06T05:20:25.377Z,96840.47
2023-05-06T05:22:52.881Z,96848.91
2023-05-06T05:25:19.336Z,96838.84
2023-05-06T05:27:49.959Z,96847.41
2023-05-06T05:30:16.610Z,96850.47
2023-05-06T05:32:50.758Z,96862.53
2023-05-06T05:35:19.333Z,96865.19
2023-05-06T05:37:45.817Z,96864.59
2023-05-06T05:40:13.085Z,96856.94
2023-05-06T05:42:40.676Z,96869.13
2023-05-06T05:45:08.711Z,96864.97
2023-05-06T05:47:35.580Z,96861.75
2023-05-06T05:50:02.154Z,96863.38
2023-05-06T05:52:28.688Z,96860.94
2023-05-06T05:54:55.236Z,96864.63
2023-05-06T05:57:28.898Z,96869.31
2023-05-06T05:59:56.412Z,96868.94
2023-05-06T06:02:23.185Z,96873.81
2023-05-06T06:04:57.731Z,96862.63
2023-05-06T06:07:24.849Z,96880.53
2023-05-06T06:09:51.658Z,96871.13
2023-05-06T06:12:20.164Z,96883.31
2023-05-06T06:14:48.142Z,96880.91
2023-05-06T06:17:15.303Z,96894.19
2023-05-06T06:19:47.111Z,96884.59
2023-05-06T06:22:13.678Z,96883.38
2023-05-06T06:24:40.239Z,96879.31
2023-05-06T06:27:25.210Z,96884.00
2023-05-06T06:29:53.676Z,96891.16
2023-05-06T06:32:22.262Z,96892.41
2023-05-06T06:34:50.741Z,96892.19
2023-05-06T06:37:17.209Z,96894.81
2023-05-06T06:39:43.782Z,96898.06
2023-05-06T06:42:16.340Z,96902.16
2023-05-06T06:44:42.834Z,96896.06
2023-05-06T06:47:09.319Z,96883.22
2023-05-06T06:49:40.333Z,96896.84
2023-05-06T06:52:06.793Z,96897.47
2023-05-06T06:54:33.267Z,96874.09
2023-05-06T06:57:00.154Z,96886.75
2023-05-06T06:59:26.740Z,96880.41
2023-05-06T07:01:53.226Z,96883.28
2023-05-06T07:04:19.822Z,96877.91
2023-05-06T07:06:46.444Z,96889.66
2023-05-06T07:09:13.339Z,96879.94
2023-05-06T07:11:41.837Z,96893.69
2023-05-06T07:14:08.776Z,96882.06
2023-05-06T07:16:41.865Z,96887.38
2023-05-06T07:19:20.441Z,96880.19
2023-05-06T07:21:48.930Z,96876.34
2023-05-06T07:24:15.466Z,96875.03
2023-05-06T07:26:42.114Z,96872.25
2023-05-06T07:29:08.765Z,96882.81
2023-05-06T07:31:42.191Z,96880.19
2023-05-06T07:34:08.713Z,96875.84
2023-05-06T07:36:40.509Z,96887.91
2023-05-06T07:39:07.708Z,96887.56
2023-05-06T07:41:34.509Z,96891.75
2023-05-06T07:44:01.409Z,96881.09
2023-05-06T07:46:28.201Z,96884.84
2023-05-06T07:48:54.962Z,96892.78
2023-05-06T07:51:21.797Z,96887.59
2023-05-06T07:53:50.453Z,96893.28
2023-05-06T07:56:23.078Z,96898.22
2023-05-06T07:58:51.564Z,96889.59
2023-05-06T08:01:18.217Z,96899.63
2023-05-06T08:03:44.839Z,96892.59
2023-05-06T08:06:11.496Z,96900.44
2023-05-06T08:08:37.979Z,96909.47
2023-05-06T08:11:04.768Z,96905.69
2023-05-06T08:13:33.439Z,96903.06
2023-05-06T08:16:02.272Z,96899.03
2023-05-06T08:18:28.900Z,96901.94
2023-05-06T08:20:55.702Z,96898.78
2023-05-06T08:23:26.204Z,96895.59
2023-05-06T08:25:52.699Z,96894.75
2023-05-06T08:28:19.740Z,96901.25
2023-05-06T08:30:48.391Z,96899.78
2023-05-06T08:33:14.938Z,96894.19
2023-05-06T08:35:42.518Z,96904.09
2023-05-06T08:38:09.120Z,96903.50
2023-05-06T08:40:43.114Z,96897.28
2023-05-06T08:43:19.982Z,96902.81
2023-05-06T08:45:52.334Z,96901.75
2023-05-06T08:48:18.933Z,96915.03
2023-05-06T08:50:47.549Z,96909.94
2023-05-06T08:53:14.201Z,96915.44
2023-05-06T08:55:42.570Z,96918.88
2023-05-06T08:58:14.080Z,96923.63
2023-05-06T09:00:40.719Z,96916.13
2023-05-06T09:03:07.392Z,96917.50
2023-05-06T09:05:33.977Z,96921.63
2023-05-06T09:08:00.458Z,96911.59
2023-05-06T09:10:33.093Z,96914.56
2023-05-06T09:12:59.771Z,96917.84
2023-05-06T09:15:27.086Z,96909.63
2023-05-06T09:17:55.315Z,96916.31
2023-05-06T09:20:21.959Z,96914.31
2023-05-06T09:22:49.059Z,96903.13
2023-05-06T09:25:15.628Z,96902.88
2023-05-06T09:27:42.085Z,96907.44
2023-05-06T09:30:12.446Z,96913.31
2023-05-06T09:32:40.507Z,96911.59
2023-05-06T09:35:08.626Z,96901.25
2023-05-06T09:37:35.415Z,96900.44
2023-05-06T09:40:01.988Z,96906.84
2023-05-06T09:42:30.146Z,96906.88
2023-05-06T09:45:01.547Z,96916.38
2023-05-06T09:47:33.746Z,96907.03
2023-05-06T09:50:01.592Z,96904.88
2023-05-06T09:52:29.039Z,96914.03
2023-05-06T09:54:55.817Z,96903.97
2023-05-06T09:57:22.965Z,96908.88
2023-05-06T09:59:52.263Z,96896.34
2023-05-06T10:02:20.093Z,96910.72
2023-05-06T10:04:49.086Z,96914.81
2023-05-06T10:07:19.722Z,96900.53
2023-05-06T10:09:48.840Z,96905.06
2023-05-06T10:12:16.720Z,96915.50
2023-05-06T10:14:54.616Z,96915.44
2023-05-06T10:17:25.868Z,96911.78
2023-05-06T10:19:57.119Z,96908.88
2023-05-06T10:22:49.384Z,96910.47
2023-05-06T10:25:38.095Z,96907.03
2023-05-06T10:28:07.594Z,96898.78
2023-05-06T10:30:44.947Z,96902.16
2023-05-06T10:33:15.172Z,96899.94
2023-05-06T10:35:41.810Z,96900.16
2023-05-06T10:38:14.943Z,96894.69
2023-05-06T10:40:42.403Z,96884.72
2023-05-06T10:43:25.466Z,96886.97
2023-05-06T10:46:12.309Z,96890.22
2023-05-06T10:48:59.805Z,96887.31
2023-05-06T10:51:28.251Z,96882.69
2023-05-06T10:54:09.668Z,96884.50
2023-05-06T10:56:38.236Z,96881.97
2023-05-06T10:59:10.091Z,96874.72
2023-05-06T11:01:38.554Z,96883.06
2023-05-06T11:04:11.051Z,96880.63
2023-05-06T11:06:41.733Z,96875.25
2023-05-06T11:09:27.466Z,96881.09
2023-05-06T11:12:02.636Z,96883.03
2023-05-06T11:14:35.571Z,96881.56
2023-05-06T11:17:08.643Z,96871.38
2023-05-06T11:19:37.699Z,96870.09
2023-05-06T11:22:06.060Z,96872.13
2023-05-06T11:24:40.248Z,96871.19
2023-05-06T11:27:07.484Z,96884.38
2023-05-06T11:29:33.999Z,96885.66
2023-05-06T11:32:05.656Z,96874.63
2023-05-06T11:34:32.929Z,96876.28
2023-05-06T11:37:02.291Z,96873.19
2023-05-06T11:39:33.216Z,96875.84
2023-05-06T11:42:09.498Z,96884.09
2023-05-06T11:44:38.782Z,96871.47
2023-05-06T11:47:07.540Z,96872.66
2023-05-06T11:49:42.757Z,96884.84
2023-05-06T11:52:10.757Z,96876.50
2023-05-06T11:54:48.442Z,96881.09
2023-05-06T11:57:16.231Z,96876.94
2023-05-06T11:59:43.748Z,96880.69
2023-05-06T12:02:14.151Z,96889.88
2023-05-06T12:04:42.941Z,96880.56
2023-05-06T12:07:11.834Z,96875.97
2023-05-06T12:09:49.191Z,96878.78
2023-05-06T12:12:19.435Z,96885.00
2023-05-06T12:14:49.243Z,96888.47
2023-05-06T12:17:16.573Z,96881.28
2023-05-06T12:19:43.055Z,96877.56
2023-05-06T12:22:16.465Z,96883.59
2023-05-06T12:24:43.038Z,96876.34
2023-05-06T12:27:09.638Z,96872.53
2023-05-06T12:29:36.246Z,96870.44
2023-05-06T12:32:13.879Z,96872.53
2023-05-06T12:34:41.623Z,96882.91
2023-05-06T12:37:11.372Z,96879.00
2023-05-06T12:39:39.381Z,96873.41
2023-05-06T12:42:06.491Z,96866.81
2023-05-06T12:44:33.581Z,96869.38
2023-05-06T12:47:07.417Z,96854.34
2023-05-06T12:49:59.416Z,96842.66
2023-05-06T12:52:28.786Z,96850.56
2023-05-06T12:54:55.769Z,96857.44
2023-05-06T12:57:22.947Z,96841.06
2023-05-06T12:59:49.951Z,96844.06
2023-05-06T13:02:16.528Z,96843.53
2023-05-06T13:04:44.283Z,96838.53
2023-05-06T13:07:10.884Z,96841.34
2023-05-06T13:09:37.365Z,96850.22
2023-05-06T13:12:05.099Z,96845.22
2023-05-06T13:14:33.617Z,96848.03
2023-05-06T13:17:01.305Z,96844.88
2023-05-06T13:19:32.900Z,96847.81
2023-05-06T13:22:07.167Z,96834.63
2023-05-06T13:24:33.665Z,96833.00
2023-05-06T13:27:01.436Z,96835.25
2023-05-06T13:29:29.538Z,96825.84
2023-05-06T13:31:56.566Z,96835.72
2023-05-06T13:34:23.108Z,96836.78
2023-05-06T13:36:52.160Z,96829.88
2023-05-06T13:39:18.644Z,96829.50
2023-05-06T13:41:50.053Z,96825.91
2023-05-06T13:44:17.276Z,96818.44
2023-05-06T13:46:45.655Z,96822.59
2023-05-06T13:49:14.609Z,96810.94
2023-05-06T13:51:42.169Z,96817.41
2023-05-06T13:54:08.652Z,96827.09
2023-05-06T13:56:35.366Z,96815.09
2023-05-06T13:59:01.866Z,96814.38
2023-05-06T14:01:28.353Z,96817.50
2023-05-06T14:03:54.868Z,96822.56
2023-05-06T14:06:21.294Z,96812.28
2023-05-06T14:08:47.993Z,96812.69
2023-05-06T14:11:14.459Z,96816.53
2023-05-06T14:13:41.902Z,96804.06
2023-05-06T14:16:08.550Z,96813.50
2023-05-06T14:18:35.227Z,96818.50
2023-05-06T14:21:01.799Z,96798.72
2023-05-06T14:23:28.248Z,96798.66
2023-05-06T14:25:54.755Z,96806.53
2023-05-06T14:28:21.218Z,96805.50
2023-05-06T14:30:50.828Z,96802.16
2023-05-06T14:33:17.289Z,96795.28
2023-05-06T14:35:46.032Z,96796.88
2023-05-06T14:38:12.539Z,96789.44
2023-05-06T14:40:40.318Z,96791.31
2023-05-06T14:43:07.604Z,96792.03
2023-05-06T14:45:42.581Z,96784.28
2023-05-06T14:48:14.163Z,96774.63
2023-05-06T14:50:41.192Z,96790.50
2023-05-06T14:53:07.667Z,96783.38
2023-05-06T14:55:34.103Z,96782.97
2023-05-06T14:58:03.758Z,96777.88
2023-05-06T15:00:31.089Z,96790.78
2023-05-06T15:02:57.584Z,96781.97
2023-05-06T15:05:26.235Z,96782.84
2023-05-06T15:07:52.691Z,96783.50
2023-05-06T15:10:27.048Z,96790.56
2023-05-06T15:12:53.532Z,96797.13
2023-05-06T15:15:20.324Z,96782.34
2023-05-06T15:17:47.004Z,96785.69
2023-05-06T15:20:13.638Z,96777.09
2023-05-06T15:22:40.325Z,96782.41
2023-05-06T15:25:09.411Z,96780.31
2023-05-06T15:27:40.901Z,96788.81
2023-05-06T15:30:10.851Z,96786.50
2023-05-06T15:32:37.398Z,96778.91
2023-05-06T15:35:04.888Z,96787.69
2023-05-06T15:37:34.367Z,96787.78
2023-05-06T15:40:01.050Z,96792.03
2023-05-06T15:42:27.652Z,96780.16
2023-05-06T15:44:55.021Z,96779.97
2023-05-06T15:47:27.487Z,96781.91
2023-05-06T15:49:54.972Z,96787.16
2023-05-06T15:52:22.557Z,96782.84
2023-05-06T15:54:50.083Z,96785.63
2023-05-06T15:57:17.167Z,96772.97
2023-05-06T15:59:43.597Z,96788.72
2023-05-06T16:04:41.116Z,96782.66
2023-05-06T16:07:07.692Z,96784.16
2023-05-06T16:09:35.168Z,96780.72
2023-05-06T16:12:01.647Z,96780.28
2023-05-06T16:14:28.095Z,96781.59
2023-05-06T16:16:54.618Z,96785.28
2023-05-06T16:19:21.149Z,96784.09
2023-05-06T16:21:48.355Z,96781.00
2023-05-06T16:24:14.969Z,96778.53
2023-05-06T16:26:41.549Z,96771.13
2023-05-06T16:29:08.041Z,96775.16
2023-05-06T16:31:34.681Z,96776.50
2023-05-06T16:34:01.234Z,96785.28
2023-05-06T16:36:28.895Z,96780.47
2023-05-06T16:38:55.527Z,96775.00
2023-05-06T16:41:22.559Z,96781.81
2023-05-06T16:43:49.033Z,96776.16
2023-05-06T16:46:15.624Z,96776.09
2023-05-06T16:48:42.255Z,96769.63
2023-05-06T16:51:10.332Z,96768.56
2023-05-06T16:53:36.811Z,96773.88
2023-05-06T16:56:03.713Z,96782.97
2023-05-06T16:58:31.369Z,96775.19
2023-05-06T17:00:57.831Z,96771.09
2023-05-06T17:03:27.593Z,96764.25
2023-05-06T17:05:54.515Z,96768.72
2023-05-06T17:08:27.248Z,96783.56
2023-05-06T17:10:53.823Z,96771.66
2023-05-06T17:13:23.513Z,96779.75
2023-05-06T17:15:51.332Z,96777.13
2023-05-06T17:18:18.519Z,96773.00
2023-05-06T17:20:54.910Z,96771.69
2023-05-06T17:23:22.057Z,96780.47
2023-05-06T17:25:48.570Z,96786.53
2023-05-06T17:28:18.002Z,96787.47
2023-05-06T17:30:47.176Z,96784.03
2023-05-06T17:33:14.711Z,96782.19
2023-05-06T17:35:41.156Z,96777.91
2023-05-06T17:38:07.894Z,96788.53
2023-05-06T17:40:34.522Z,96787.94
2023-05-06T17:43:11.246Z,96788.03
2023-05-06T17:45:37.687Z,96789.91
2023-05-06T17:48:04.410Z,96785.69
2023-05-06T17:50:31.907Z,96788.91
2023-05-06T17:52:58.343Z,96793.00
2023-05-06T17:55:25.094Z,96789.72
2023-05-06T17:57:52.777Z,96793.13
2023-05-06T18:00:19.525Z,96798.66
2023-05-06T18:02:46.278Z,96799.41
2023-05-06T18:05:13.744Z,96793.72
2023-05-06T18:07:40.953Z,96802.53
2023-05-06T18:10:08.018Z,96801.16
2023-05-06T18:12:34.555Z,96780.31
2023-05-06T18:15:01.299Z,96796.63
2023-05-06T18:17:27.818Z,96798.56
2023-05-06T18:19:54.388Z,96792.53
2023-05-06T18:22:20.859Z,96800.00
2023-05-06T18:24:47.418Z,96794.88
2023-05-06T18:27:13.874Z,96803.88
2023-05-06T18:29:41.415Z,96804.31
2023-05-06T18:32:09.054Z,96811.34
2023-05-06T18:34:35.675Z,96795.50
2023-05-06T18:37:03.779Z,96808.94
2023-05-06T18:39:30.716Z,96817.06
2023-05-06T18:41:57.240Z,96819.94
2023-05-06T18:44:23.710Z,96821.34
2023-05-06T18:46:50.227Z,96824.69
2023-05-06T18:49:16.678Z,96824.84
2023-05-06T18:51:45.247Z,96826.31
2023-05-06T18:54:13.431Z,96826.59
2023-05-06T18:56:42.633Z,96828.56
2023-05-06T18:59:09.164Z,96838.66
2023-05-06T19:01:36.661Z,96833.19
2023-05-06T19:04:03.750Z,96843.16
2023-05-06T19:06:31.533Z,96840.38
2023-05-06T19:09:11.371Z,96839.09
2023-05-06T19:11:37.905Z,96846.22
2023-05-06T19:14:05.480Z,96851.59
2023-05-06T19:16:33.034Z,96852.31
2023-05-06T19:19:02.718Z,96844.72
2023-05-06T19:21:29.240Z,96851.19
2023-05-06T19:24:04.488Z,96854.31
2023-05-06T19:26:31.017Z,96855.84
2023-05-06T19:28:57.494Z,96838.22
2023-05-06T19:31:25.765Z,96850.19
2023-05-06T19:33:52.416Z,96852.63
2023-05-06T19:36:18.838Z,96861.31
2023-05-06T19:38:45.285Z,96861.19
2023-05-06T19:41:11.834Z,96865.28
2023-05-06T19:43:45.282Z,96866.94
2023-05-06T19:46:12.186Z,96863.91
2023-05-06T19:48:46.164Z,96866.41
2023-05-06T19:51:16.469Z,96873.13
2023-05-06T19:53:43.036Z,96870.41
2023-05-06T19:56:11.060Z,96875.41
2023-05-06T19:58:38.041Z,96883.25
2023-05-06T20:01:04.595Z,96875.88
2023-05-06T20:03:42.210Z,96878.00
2023-05-06T20:06:08.836Z,96877.41
2023-05-06T20:08:35.565Z,96880.06
2023-05-06T20:11:02.197Z,96878.50
2023-05-06T20:13:28.797Z,96871.41
2023-05-06T20:15:55.723Z,96879.56
2023-05-06T20:18:22.791Z,96873.63
2023-05-06T20:20:50.628Z,96876.88
2023-05-06T20:23:17.173Z,96867.16
2023-05-06T20:25:43.959Z,96883.44
2023-05-06T20:28:10.761Z,96871.22
2023-05-06T20:30:38.357Z,96882.22
2023-05-06T20:33:18.073Z,96873.06
2023-05-06T20:35:44.647Z,96869.53
2023-05-06T20:38:11.176Z,96867.72
2023-05-06T20:40:37.761Z,96876.88
2023-05-06T20:43:04.280Z,96876.25
2023-05-06T20:45:31.466Z,96875.25
2023-05-06T20:47:58.404Z,96884.22
2023-05-06T20:50:24.927Z,96881.81
2023-05-06T20:52:52.904Z,96881.41
2023-05-06T20:55:23.064Z,96882.22
2023-05-06T20:57:49.949Z,96879.97
2023-05-06T21:00:16.599Z,96877.53
2023-05-06T21:02:43.209Z,96870.59
2023-05-06T21:05:13.297Z,96880.59
2023-05-06T21:07:40.140Z,96872.44
2023-05-06T21:10:06.983Z,96887.09
2023-05-06T21:12:33.715Z,96877.75
2023-05-06T21:15:00.536Z,96875.50
2023-05-06T21:17:27.238Z,96878.13
2023-05-06T21:19:53.923Z,96882.22
2023-05-06T21:22:24.041Z,96882.22
2023-05-06T21:24:51.066Z,96872.06
2023-05-06T21:27:17.752Z,96872.44
2023-05-06T21:29:45.458Z,96879.16
2023-05-06T21:32:12.113Z,96879.16
2023-05-06T21:34:38.713Z,96879.75
2023-05-06T21:37:05.264Z,96877.34
2023-05-06T21:39:31.755Z,96873.88
2023-05-06T21:41:58.508Z,96876.13
2023-05-06T21:44:25.010Z,96882.19
2023-05-06T21:46:51.562Z,96880.38
2023-05-06T21:49:19.425Z,96884.25
2023-05-06T21:51:45.881Z,96876.69
2023-05-06T21:54:12.377Z,96878.94
2023-05-06T21:56:40.898Z,96890.13
2023-05-06T21:59:07.937Z,96891.16
2023-05-06T22:01:36.301Z,96892.00
2023-05-06T22:04:04.825Z,96890.75
2023-05-06T22:06:31.461Z,96887.50
2023-05-06T22:08:57.913Z,96887.88
2023-05-06T22:11:24.785Z,96885.22
2023-05-06T22:13:51.334Z,96885.44
2023-05-06T22:16:29.667Z,96892.53
2023-05-06T22:18:59.724Z,96888.25
2023-05-06T22:21:28.696Z,96890.09
2023-05-06T22:23:55.138Z,96897.38
2023-05-06T22:26:21.876Z,96899.22
2023-05-06T22:28:48.378Z,96896.16
2023-05-06T22:31:15.584Z,96899.41
2023-05-06T22:33:42.291Z,96899.78
2023-05-06T22:36:08.820Z,96906.50
2023-05-06T22:38:35.285Z,96903.25
2023-05-06T22:41:04.977Z,96902.06
2023-05-06T22:43:31.431Z,96897.75
2023-05-06T22:45:57.950Z,96893.25
2023-05-06T22:48:24.755Z,96903.22
2023-05-06T22:50:51.216Z,96898.63
2023-05-06T22:53:17.668Z,96903.97
2023-05-06T22:55:45.402Z,96894.94
2023-05-06T22:58:15.086Z,96902.69
2023-05-06T23:00:43.224Z,96909.97
2023-05-06T23:03:11.765Z,96912.00
2023-05-06T23:05:38.252Z,96911.94
2023-05-06T23:08:04.926Z,96905.59
2023-05-06T23:10:32.452Z,96909.28
2023-05-06T23:13:03.002Z,96912.53
2023-05-06T23:15:30.637Z,96918.75
2023-05-06T23:17:57.129Z,96913.69
2023-05-06T23:20:30.786Z,96919.63
2023-05-06T23:22:57.279Z,96915.88
2023-05-06T23:25:24.240Z,96907.81
2023-05-06T23:27:50.749Z,96910.22
2023-05-06T23:30:20.414Z,96913.91
2023-05-06T23:32:46.962Z,96906.34
2023-05-06T23:35:13.684Z,96900.81
2023-05-06T23:37:40.275Z,96906.88
2023-05-06T23:40:07.763Z,96919.25
2023-05-06T23:42:34.218Z,96912.50
2023-05-06T23:45:00.887Z,96917.97
2023-05-06T23:47:27.464Z,96910.81
2023-05-06T23:49:53.961Z,96917.44
2023-05-06T23:52:21.299Z,96923.47
2023-05-06T23:54:47.812Z,96928.38
2023-05-06T23:57:14.298Z,96922.28
2023-05-06T23:59:40.743Z,96923.38
